createdAt,value
2023-04-11T00:01:03.810Z,62.08
2023-04-11T00:03:34.069Z,61.99
2023-04-11T00:06:02.568Z,61.88
2023-04-11T00:08:33.063Z,61.75
2023-04-11T00:11:03.053Z,61.72
2023-04-11T00:13:31.321Z,61.65
2023-04-11T00:16:05.818Z,61.58
2023-04-11T00:18:38.051Z,61.61
2023-04-11T00:21:08.205Z,61.55
2023-04-11T00:23:38.097Z,61.64
2023-04-11T00:26:07.011Z,61.61
2023-04-11T00:28:43.016Z,61.61
2023-04-11T00:31:12.628Z,61.73
2023-04-11T00:33:42.609Z,61.79
2023-04-11T00:36:11.309Z,61.80
2023-04-11T00:38:40.402Z,61.79
2023-04-11T00:41:11.031Z,61.90
2023-04-11T00:43:49.963Z,61.82
2023-04-11T00:46:19.000Z,61.81
2023-04-11T00:48:48.071Z,61.83
2023-04-11T00:51:24.174Z,61.82
2023-04-11T00:53:53.437Z,61.82
2023-04-11T00:56:22.396Z,61.87
2023-04-11T00:58:51.031Z,61.92
2023-04-11T01:01:20.391Z,61.94
2023-04-11T01:03:49.167Z,61.98
2023-04-11T01:06:20.098Z,61.98
2023-04-11T01:08:49.335Z,61.97
2023-04-11T01:11:20.640Z,61.99
2023-04-11T01:13:49.731Z,62.09
2023-04-11T01:16:21.789Z,62.19
2023-04-11T01:18:50.942Z,62.21
2023-04-11T01:21:20.407Z,62.19
2023-04-11T01:23:49.125Z,62.39
2023-04-11T01:26:17.585Z,62.35
2023-04-11T01:28:46.781Z,62.44
2023-04-11T01:31:16.486Z,62.30
2023-04-11T01:33:45.638Z,62.39
2023-04-11T01:36:13.836Z,62.38
2023-04-11T01:38:44.442Z,62.36
2023-04-11T01:41:12.777Z,62.33
2023-04-11T01:43:44.879Z,62.45
2023-04-11T01:46:13.681Z,62.46
2023-04-11T01:48:42.868Z,62.35
2023-04-11T01:51:12.378Z,62.56
2023-04-11T01:53:40.636Z,62.49
2023-04-11T01:56:09.824Z,62.45
2023-04-11T01:58:38.391Z,62.57
2023-04-11T02:01:14.663Z,62.54
2023-04-11T02:03:47.426Z,62.56
2023-04-11T02:06:20.317Z,62.67
2023-04-11T02:08:54.233Z,62.62
2023-04-11T02:11:25.559Z,62.49
2023-04-11T02:13:54.081Z,62.49
2023-04-11T02:16:26.037Z,62.50
2023-04-11T02:18:55.322Z,62.53
2023-04-11T02:21:23.893Z,62.46
2023-04-11T02:23:55.265Z,62.33
2023-04-11T02:26:27.173Z,62.39
2023-04-11T02:28:57.534Z,62.41
2023-04-11T02:31:28.909Z,62.40
2023-04-11T02:33:57.769Z,62.46
2023-04-11T02:36:28.781Z,62.51
2023-04-11T02:38:57.203Z,62.52
2023-04-11T02:41:27.845Z,62.52
2023-04-11T02:44:02.921Z,62.57
2023-04-11T02:46:32.287Z,62.53
2023-04-11T02:49:00.941Z,62.43
2023-04-11T02:51:29.947Z,62.45
2023-04-11T02:53:58.868Z,62.48
2023-04-11T02:56:39.544Z,62.50
2023-04-11T02:59:11.235Z,62.61
2023-04-11T03:01:48.025Z,62.52
2023-04-11T03:04:56.831Z,62.52
2023-04-11T03:07:25.293Z,62.43
2023-04-11T03:09:59.615Z,62.33
2023-04-11T03:12:28.476Z,62.29
2023-04-11T03:14:59.230Z,62.26
2023-04-11T03:17:30.679Z,62.33
2023-04-11T03:19:59.331Z,62.30
2023-04-11T03:22:29.014Z,62.14
2023-04-11T03:24:57.409Z,62.11
2023-04-11T03:27:27.350Z,61.93
2023-04-11T03:29:58.802Z,61.83
2023-04-11T03:32:33.752Z,61.58
2023-04-11T03:35:02.432Z,61.47
2023-04-11T03:37:31.432Z,61.23
2023-04-11T03:39:59.754Z,61.11
2023-04-11T03:42:28.009Z,60.95
2023-04-11T03:44:58.861Z,60.69
2023-04-11T03:47:27.457Z,60.53
2023-04-11T03:49:57.576Z,60.33
2023-04-11T03:52:26.145Z,60.19
2023-04-11T03:54:54.668Z,59.91
2023-04-11T03:57:23.542Z,59.58
2023-04-11T03:59:52.975Z,59.12
2023-04-11T04:02:21.733Z,58.83
2023-04-11T04:04:58.922Z,58.40
2023-04-11T04:07:38.222Z,58.14
2023-04-11T04:10:16.078Z,57.91
2023-04-11T04:12:45.421Z,57.65
2023-04-11T04:15:26.457Z,57.31
2023-04-11T04:17:55.543Z,57.04
2023-04-11T04:20:37.859Z,56.68
2023-04-11T04:23:07.982Z,56.09
2023-04-11T04:25:50.450Z,55.69
2023-04-11T04:28:26.304Z,55.19
2023-04-11T04:30:58.257Z,54.83
2023-04-11T04:33:33.291Z,54.03
2023-04-11T04:36:05.054Z,53.56
2023-04-11T04:38:39.014Z,53.59
2023-04-11T04:41:16.489Z,53.45
2023-04-11T04:43:55.350Z,52.92
2023-04-11T04:46:39.299Z,52.76
2023-04-11T04:49:08.144Z,52.42
2023-04-11T04:51:40.291Z,52.28
2023-04-11T04:54:10.034Z,52.12
2023-04-11T04:56:40.254Z,52.08
2023-04-11T04:59:18.402Z,51.77
2023-04-11T05:01:52.131Z,51.65
2023-04-11T05:04:26.502Z,51.40
2023-04-11T05:06:57.058Z,50.70
2023-04-11T05:09:28.994Z,50.86
2023-04-11T05:12:07.289Z,50.61
2023-04-11T05:14:37.623Z,50.38
2023-04-11T05:17:11.231Z,50.68
2023-04-11T05:19:41.547Z,50.42
2023-04-11T05:22:11.361Z,49.81
2023-04-11T05:24:46.635Z,49.88
2023-04-11T05:27:15.188Z,50.10
2023-04-11T05:29:44.369Z,49.90
2023-04-11T05:32:16.215Z,49.70
2023-04-11T05:34:58.172Z,49.52
2023-04-11T05:37:44.988Z,49.60
2023-04-11T05:40:14.555Z,49.34
2023-04-11T05:42:43.542Z,49.20
2023-04-11T05:45:12.759Z,48.91
2023-04-11T05:47:42.477Z,49.04
2023-04-11T05:50:11.161Z,49.09
2023-04-11T05:52:39.707Z,49.17
2023-04-11T05:55:09.917Z,48.84
2023-04-11T05:57:41.561Z,48.81
2023-04-11T06:00:17.955Z,48.51
2023-04-11T06:03:08.293Z,49.07
2023-04-11T06:05:38.263Z,49.01
2023-04-11T06:08:08.909Z,48.89
2023-04-11T06:10:38.963Z,48.52
2023-04-11T06:13:10.492Z,48.35
2023-04-11T06:15:41.234Z,48.46
2023-04-11T06:18:10.193Z,48.26
2023-04-11T06:20:47.297Z,47.28
2023-04-11T06:23:15.720Z,47.00
2023-04-11T06:25:44.175Z,47.23
2023-04-11T06:28:15.142Z,46.27
2023-04-11T06:30:43.790Z,46.40
2023-04-11T06:33:13.512Z,47.03
2023-04-11T06:35:45.976Z,46.47
2023-04-11T06:38:16.103Z,46.06
2023-04-11T06:40:45.074Z,46.28
2023-04-11T06:43:14.089Z,45.81
2023-04-11T06:45:43.685Z,46.30
2023-04-11T06:48:13.075Z,45.39
2023-04-11T06:50:41.980Z,45.36
2023-04-11T06:53:11.653Z,44.61
2023-04-11T06:55:40.905Z,44.99
2023-04-11T06:58:10.125Z,45.34
2023-04-11T07:00:40.133Z,45.37
2023-04-11T07:03:10.329Z,45.65
2023-04-11T07:05:41.684Z,45.29
2023-04-11T07:08:14.984Z,44.14
2023-04-11T07:10:45.024Z,43.92
2023-04-11T07:13:13.297Z,43.50
2023-04-11T07:15:43.493Z,43.62
2023-04-11T07:18:13.238Z,44.21
2023-04-11T07:20:41.529Z,43.71
2023-04-11T07:23:16.400Z,43.54
2023-04-11T07:25:45.427Z,42.76
2023-04-11T07:28:14.973Z,41.91
2023-04-11T07:30:43.236Z,42.28
2023-04-11T07:33:11.944Z,42.46
2023-04-11T07:35:41.027Z,42.57
2023-04-11T07:38:10.394Z,42.78
2023-04-11T07:40:39.715Z,43.01
2023-04-11T07:43:09.335Z,42.38
2023-04-11T07:45:39.588Z,42.69
2023-04-11T07:48:14.783Z,43.01
2023-04-11T07:50:45.500Z,42.84
2023-04-11T07:53:22.507Z,42.59
2023-04-11T07:55:50.809Z,42.62
2023-04-11T07:58:19.041Z,42.85
2023-04-11T08:00:47.958Z,43.31
2023-04-11T08:03:17.788Z,43.10
2023-04-11T08:05:46.292Z,42.89
2023-04-11T08:08:17.477Z,43.29
2023-04-11T08:10:46.040Z,42.55
2023-04-11T08:13:15.891Z,41.62
2023-04-11T08:15:47.766Z,41.76
2023-04-11T08:18:21.727Z,41.43
2023-04-11T08:20:50.125Z,41.68
2023-04-11T08:23:20.057Z,41.55
2023-04-11T08:25:48.943Z,41.15
2023-04-11T08:28:17.177Z,41.32
2023-04-11T08:30:46.888Z,41.38
2023-04-11T08:33:15.986Z,40.69
2023-04-11T08:35:51.146Z,40.73
2023-04-11T08:38:21.137Z,40.95
2023-04-11T08:40:51.230Z,41.41
2023-04-11T08:43:20.841Z,41.15
2023-04-11T08:45:49.148Z,40.21
2023-04-11T08:48:19.647Z,40.11
2023-04-11T08:50:48.458Z,40.39
2023-04-11T08:53:25.152Z,40.56
2023-04-11T08:55:56.133Z,40.10
2023-04-11T08:58:24.367Z,39.93
2023-04-11T09:00:53.668Z,40.00
2023-04-11T09:03:22.154Z,39.98
2023-04-11T09:05:51.558Z,40.56
2023-04-11T09:08:22.091Z,40.75
2023-04-11T09:10:50.462Z,40.09
2023-04-11T09:13:26.234Z,40.27
2023-04-11T09:16:14.825Z,40.33
2023-04-11T09:18:47.057Z,39.68
2023-04-11T09:21:31.069Z,39.80
2023-04-11T09:24:15.598Z,39.88
2023-04-11T09:26:44.052Z,39.97
2023-04-11T09:29:12.341Z,40.68
2023-04-11T09:31:46.964Z,40.52
2023-04-11T09:34:21.832Z,39.31
2023-04-11T09:36:55.290Z,39.45
2023-04-11T09:39:25.005Z,39.24
2023-04-11T09:41:54.650Z,39.87
2023-04-11T09:44:38.669Z,39.10
2023-04-11T09:47:07.026Z,39.08
2023-04-11T09:49:36.337Z,39.58
2023-04-11T09:52:05.765Z,39.73
2023-04-11T09:54:34.747Z,39.48
2023-04-11T09:57:05.404Z,39.91
2023-04-11T09:59:34.450Z,40.58
2023-04-11T10:02:03.777Z,39.87
2023-04-11T10:04:32.831Z,39.81
2023-04-11T10:07:21.357Z,40.42
2023-04-11T10:09:50.637Z,40.53
2023-04-11T10:12:33.349Z,40.85
2023-04-11T10:15:12.155Z,40.03
2023-04-11T10:17:41.644Z,39.76
2023-04-11T10:20:40.633Z,40.00
2023-04-11T10:23:08.937Z,39.44
2023-04-11T10:25:58.029Z,39.01
2023-04-11T10:28:33.649Z,38.80
2023-04-11T10:31:13.451Z,37.93
2023-04-11T10:33:42.205Z,37.98
2023-04-11T10:36:13.711Z,38.73
2023-04-11T10:38:49.272Z,38.95
2023-04-11T10:41:34.247Z,38.31
2023-04-11T10:44:23.438Z,37.67
2023-04-11T10:46:54.230Z,37.38
2023-04-11T10:49:35.018Z,37.79
2023-04-11T10:52:22.055Z,38.42
2023-04-11T10:54:52.069Z,37.64
2023-04-11T10:57:28.858Z,36.77
2023-04-11T10:59:58.541Z,37.40
2023-04-11T11:02:27.625Z,37.65
2023-04-11T11:04:56.001Z,37.43
2023-04-11T11:07:24.599Z,36.57
2023-04-11T11:09:55.680Z,35.99
2023-04-11T11:12:23.860Z,36.54
2023-04-11T11:14:52.037Z,36.30
2023-04-11T11:17:20.315Z,35.80
2023-04-11T11:19:49.544Z,35.34
2023-04-11T11:22:18.869Z,35.09
2023-04-11T11:24:47.130Z,35.51
2023-04-11T11:27:24.256Z,35.63
2023-04-11T11:29:53.537Z,35.95
2023-04-11T11:32:25.303Z,36.49
2023-04-11T11:34:54.262Z,36.07
2023-04-11T11:37:23.366Z,35.11
2023-04-11T11:39:52.089Z,35.49
2023-04-11T11:42:21.236Z,35.82
2023-04-11T11:44:49.737Z,36.46
2023-04-11T11:47:23.904Z,36.38
2023-04-11T11:49:56.951Z,35.43
2023-04-11T11:52:35.378Z,35.48
2023-04-11T11:55:11.346Z,35.35
2023-04-11T11:57:48.326Z,35.50
2023-04-11T12:00:24.301Z,35.35
2023-04-11T12:02:57.194Z,35.42
2023-04-11T12:05:30.323Z,35.80
2023-04-11T12:08:00.598Z,35.81
2023-04-11T12:10:37.816Z,36.29
2023-04-11T12:13:22.528Z,36.69
2023-04-11T12:16:01.684Z,36.57
2023-04-11T12:18:33.280Z,36.15
2023-04-11T12:21:02.511Z,34.70
2023-04-11T12:23:30.871Z,34.27
2023-04-11T12:26:00.244Z,34.72
2023-04-11T12:28:30.790Z,34.48
2023-04-11T12:30:59.140Z,34.43
2023-04-11T12:33:29.958Z,33.49
2023-04-11T12:35:58.365Z,32.91
2023-04-11T12:38:34.984Z,32.74
2023-04-11T12:41:29.552Z,32.80
2023-04-11T12:43:51.696Z,32.76
2023-04-11T12:46:20.853Z,32.81
2023-04-11T12:48:49.342Z,33.27
2023-04-11T12:51:17.950Z,33.07
2023-04-11T12:53:46.154Z,33.22
2023-04-11T12:56:14.346Z,33.11
2023-04-11T12:58:45.190Z,33.44
2023-04-11T13:01:13.693Z,33.56
2023-04-11T13:03:42.988Z,32.64
2023-04-11T13:06:13.088Z,32.49
2023-04-11T13:08:42.866Z,32.93
2023-04-11T13:11:11.100Z,32.52
2023-04-11T13:13:40.955Z,32.90
2023-04-11T13:16:11.745Z,32.68
2023-04-11T13:18:39.958Z,32.94
2023-04-11T13:21:09.049Z,32.61
2023-04-11T13:23:37.570Z,32.70
2023-04-11T13:26:07.953Z,31.93
2023-04-11T13:28:39.175Z,31.43
2023-04-11T13:31:13.442Z,30.88
2023-04-11T13:33:42.646Z,31.31
2023-04-11T13:36:11.392Z,31.78
2023-04-11T13:38:42.779Z,31.32
2023-04-11T13:41:14.982Z,31.22
2023-04-11T13:43:43.653Z,31.94
2023-04-11T13:46:12.707Z,32.13
2023-04-11T13:48:41.263Z,31.73
2023-04-11T13:51:10.265Z,31.61
2023-04-11T13:53:38.648Z,31.82
2023-04-11T13:56:09.102Z,32.46
2023-04-11T13:58:38.531Z,32.42
2023-04-11T14:01:07.024Z,32.72
2023-04-11T14:03:38.035Z,33.36
2023-04-11T14:06:09.506Z,33.16
2023-04-11T14:08:48.143Z,32.92
2023-04-11T14:11:18.080Z,33.19
2023-04-11T14:13:51.465Z,33.12
2023-04-11T14:16:19.998Z,32.85
2023-04-11T14:18:48.418Z,33.28
2023-04-11T14:21:17.440Z,33.30
2023-04-11T14:23:46.657Z,33.40
2023-04-11T14:26:20.232Z,33.62
2023-04-11T14:28:49.030Z,34.03
2023-04-11T14:31:17.346Z,34.13
2023-04-11T14:33:46.909Z,33.97
2023-04-11T14:36:15.198Z,34.01
2023-04-11T14:38:43.482Z,33.95
2023-04-11T14:41:11.748Z,34.03
2023-04-11T14:43:39.984Z,33.58
2023-04-11T14:46:10.510Z,33.94
2023-04-11T14:48:39.361Z,33.63
2023-04-11T14:51:07.956Z,33.67
2023-04-11T14:53:37.152Z,33.66
2023-04-11T14:56:06.647Z,33.83
2023-04-11T14:58:36.717Z,34.25
2023-04-11T15:01:05.364Z,34.65
2023-04-11T15:03:34.956Z,34.73
2023-04-11T15:06:11.467Z,35.05
2023-04-11T15:08:41.926Z,35.26
2023-04-11T15:11:10.282Z,35.31
2023-04-11T15:13:48.553Z,35.74
2023-04-11T15:16:22.422Z,36.14
2023-04-11T15:18:59.770Z,36.31
2023-04-11T15:21:38.604Z,36.06
2023-04-11T15:24:07.831Z,36.31
2023-04-11T15:26:36.680Z,36.53
2023-04-11T15:29:05.278Z,36.49
2023-04-11T15:31:33.749Z,36.88
2023-04-11T15:34:04.274Z,37.10
2023-04-11T15:36:39.748Z,37.06
2023-04-11T15:39:09.519Z,37.23
2023-04-11T15:41:40.012Z,37.38
2023-04-11T15:44:12.219Z,37.54
2023-04-11T15:46:42.771Z,37.60
2023-04-11T15:49:17.116Z,37.73
2023-04-11T15:51:46.809Z,37.83
2023-04-11T15:54:16.209Z,37.82
2023-04-11T15:56:45.488Z,37.93
2023-04-11T15:59:16.223Z,38.02
2023-04-11T16:01:46.529Z,38.07
2023-04-11T16:04:16.552Z,38.01
2023-04-11T16:06:45.119Z,38.15
2023-04-11T16:09:13.463Z,38.24
2023-04-11T16:11:44.027Z,38.58
2023-04-11T16:14:13.288Z,38.58
2023-04-11T16:16:46.834Z,38.49
2023-04-11T16:19:16.654Z,38.69
2023-04-11T16:21:45.020Z,38.94
2023-04-11T16:24:14.464Z,39.04
2023-04-11T16:26:43.607Z,39.20
2023-04-11T16:29:11.838Z,39.20
2023-04-11T16:31:41.439Z,39.46
2023-04-11T16:34:09.803Z,39.40
2023-04-11T16:36:37.997Z,39.60
2023-04-11T16:39:06.666Z,39.88
2023-04-11T16:41:38.421Z,40.04
2023-04-11T16:44:18.719Z,39.66
2023-04-11T16:47:11.455Z,39.87
2023-04-11T16:50:10.671Z,39.85
2023-04-11T16:52:49.474Z,39.00
2023-04-11T16:55:21.220Z,39.34
2023-04-11T16:57:49.453Z,39.34
2023-04-11T17:00:20.671Z,39.22
2023-04-11T17:02:59.070Z,39.36
2023-04-11T17:05:27.656Z,39.51
2023-04-11T17:07:56.109Z,39.75
2023-04-11T17:10:24.769Z,40.04
2023-04-11T17:12:54.711Z,40.22
2023-04-11T17:15:23.165Z,40.19
2023-04-11T17:17:51.966Z,40.54
2023-04-11T17:20:41.386Z,40.56
2023-04-11T17:23:43.310Z,41.26
2023-04-11T17:29:59.863Z,41.87
2023-04-11T17:32:51.147Z,42.28
2023-04-11T17:35:20.284Z,42.67
2023-04-11T17:37:50.726Z,42.82
2023-04-11T17:40:19.390Z,43.08
2023-04-11T17:42:48.469Z,43.04
2023-04-11T17:45:18.617Z,43.08
2023-04-11T17:47:48.076Z,43.23
2023-04-11T17:50:16.509Z,43.30
2023-04-11T17:52:45.477Z,43.35
2023-04-11T17:55:17.914Z,43.43
2023-04-11T17:57:49.787Z,43.02
2023-04-11T18:00:24.746Z,42.41
2023-04-11T18:02:55.109Z,42.36
2023-04-11T18:05:26.648Z,42.02
2023-04-11T18:07:59.051Z,42.11
2023-04-11T18:10:28.157Z,42.20
2023-04-11T18:12:57.719Z,42.44
2023-04-11T18:15:28.270Z,42.40
2023-04-11T18:17:57.783Z,42.60
2023-04-11T18:20:26.441Z,42.56
2023-04-11T18:22:58.078Z,42.59
2023-04-11T18:25:27.312Z,42.54
2023-04-11T18:27:55.840Z,42.70
2023-04-11T18:30:24.174Z,42.63
2023-04-11T18:33:05.207Z,42.25
2023-04-11T18:35:33.704Z,42.34
2023-04-11T18:38:13.707Z,42.32
2023-04-11T18:40:41.870Z,42.38
2023-04-11T18:43:10.886Z,42.39
2023-04-11T18:45:41.509Z,42.33
2023-04-11T18:48:10.574Z,42.24
2023-04-11T18:50:43.173Z,42.18
2023-04-11T18:53:13.910Z,42.21
2023-04-11T18:55:49.778Z,42.36
2023-04-11T18:58:23.755Z,42.50
2023-04-11T19:00:56.853Z,42.42
2023-04-11T19:03:26.918Z,42.23
2023-04-11T19:05:55.873Z,42.05
2023-04-11T19:08:34.668Z,42.34
2023-04-11T19:11:08.599Z,42.65
2023-04-11T19:13:43.296Z,42.72
2023-04-11T19:16:16.235Z,42.82
2023-04-11T19:18:55.509Z,42.96
2023-04-11T19:21:28.264Z,43.01
2023-04-11T19:24:10.290Z,43.20
2023-04-11T19:26:40.441Z,43.12
2023-04-11T19:29:11.086Z,42.87
2023-04-11T19:31:40.581Z,43.05
2023-04-11T19:34:15.586Z,43.28
2023-04-11T19:36:45.363Z,43.37
2023-04-11T19:39:16.581Z,43.42
2023-04-11T19:41:51.535Z,43.54
2023-04-11T19:44:37.865Z,43.59
2023-04-11T19:47:06.404Z,43.79
2023-04-11T19:49:35.823Z,43.85
2023-04-11T19:52:08.973Z,43.74
2023-04-11T19:54:51.623Z,43.82
2023-04-11T19:57:34.513Z,43.83
2023-04-11T20:00:17.552Z,43.40
2023-04-11T20:02:49.052Z,43.29
2023-04-11T20:05:19.213Z,42.99
2023-04-11T20:07:48.087Z,42.55
2023-04-11T20:10:21.671Z,42.12
2023-04-11T20:12:52.690Z,41.94
2023-04-11T20:15:21.107Z,41.76
2023-04-11T20:17:49.817Z,41.91
2023-04-11T20:20:20.296Z,42.19
2023-04-11T20:22:49.926Z,42.19
2023-04-11T20:25:18.233Z,42.28
2023-04-11T20:27:46.868Z,42.56
2023-04-11T20:30:17.474Z,42.82
2023-04-11T20:32:47.239Z,43.32
2023-04-11T20:35:15.768Z,44.10
2023-04-11T20:37:49.197Z,44.70
2023-04-11T20:40:19.344Z,45.42
2023-04-11T20:42:49.833Z,46.11
2023-04-11T20:45:21.943Z,46.92
2023-04-11T20:47:54.419Z,47.84
2023-04-11T20:50:40.360Z,48.67
2023-04-11T20:53:10.597Z,49.53
2023-04-11T20:55:43.443Z,50.64
2023-04-11T20:58:17.391Z,50.82
2023-04-11T21:00:46.116Z,50.98
2023-04-11T21:03:16.743Z,51.06
2023-04-11T21:05:46.884Z,51.19
2023-04-11T21:08:15.722Z,51.57
2023-04-11T21:10:44.221Z,51.54
2023-04-11T21:13:16.690Z,51.39
2023-04-11T21:15:46.606Z,51.44
2023-04-11T21:18:16.125Z,51.46
2023-04-11T21:20:44.400Z,51.01
2023-04-11T21:23:12.729Z,51.14
2023-04-11T21:25:42.347Z,51.26
2023-04-11T21:28:10.971Z,51.86
2023-04-11T21:30:39.913Z,52.41
2023-04-11T21:33:11.080Z,52.84
2023-04-11T21:35:39.530Z,52.75
2023-04-11T21:38:08.689Z,52.63
2023-04-11T21:40:40.440Z,52.61
2023-04-11T21:43:10.987Z,52.73
2023-04-11T21:45:44.756Z,52.66
2023-04-11T21:48:18.825Z,52.48
2023-04-11T21:50:48.814Z,52.32
2023-04-11T21:53:18.537Z,52.67
2023-04-11T21:55:47.041Z,52.93
2023-04-11T21:58:28.966Z,53.03
2023-04-11T22:00:59.770Z,53.30
2023-04-11T22:03:31.386Z,53.37
2023-04-11T22:06:00.532Z,53.95
2023-04-11T22:08:31.348Z,54.37
2023-04-11T22:11:00.428Z,54.46
2023-04-11T22:13:32.332Z,54.61
2023-04-11T22:16:06.331Z,54.91
2023-04-11T22:18:47.622Z,55.13
2023-04-11T22:21:21.217Z,55.50
2023-04-11T22:23:59.152Z,55.45
2023-04-11T22:26:34.236Z,55.67
2023-04-11T22:29:05.881Z,55.75
2023-04-11T22:31:41.928Z,56.25
2023-04-11T22:34:13.670Z,56.66
2023-04-11T22:36:55.301Z,56.64
2023-04-11T22:39:54.647Z,56.92
2023-04-11T22:42:27.057Z,56.97
2023-04-11T22:45:01.470Z,56.92
2023-04-11T22:47:34.956Z,56.92
2023-04-11T22:50:12.683Z,57.41
2023-04-11T22:52:42.870Z,57.42
2023-04-11T22:55:21.449Z,57.70
2023-04-11T22:58:02.201Z,57.80
2023-04-11T23:00:47.687Z,58.02
2023-04-11T23:03:18.323Z,58.08
2023-04-11T23:05:46.887Z,58.02
2023-04-11T23:08:19.127Z,58.05
2023-04-11T23:10:47.731Z,58.01
2023-04-11T23:13:17.689Z,57.99
2023-04-11T23:15:50.777Z,58.20
2023-04-11T23:18:19.678Z,58.19
2023-04-11T23:20:49.121Z,58.42
2023-04-11T23:23:25.262Z,58.54
2023-04-11T23:25:54.525Z,58.95
2023-04-11T23:28:25.450Z,58.95
2023-04-11T23:30:56.702Z,58.92
2023-04-11T23:33:46.543Z,58.85
2023-04-11T23:36:37.264Z,58.74
2023-04-11T23:39:08.637Z,58.69
2023-04-11T23:41:39.006Z,58.85
2023-04-11T23:44:10.681Z,58.77
2023-04-11T23:46:43.391Z,59.03
2023-04-11T23:49:13.424Z,59.25
2023-04-11T23:51:42.710Z,59.07
2023-04-11T23:54:12.982Z,59.13
2023-04-11T23:56:43.873Z,59.33
2023-04-11T23:59:12.486Z,59.64
